KPAE

Snohomish County (Paine Field) Airport

Everett, Washington, USA
KPAE 181137Z 1812/1912 00000KT P6SM SKC FM181800 VRB03KT P6SM SCT250
Issued Valid From Valid To
Oct-18 @ 11:37 UTC
(4 minutes ago)
Oct-18 @ 12:00 UTC
(in 19 minutes)
Oct-19 @ 12:00 UTC
(in 24 hours)
Oct-18 @ 12:00 to Oct-18 @ 18:00
KPAE 181137Z 1812/1912 00000KT P6SM SKC
Visibility Clouds
Greater than 6 miles
  • Clear skies
From Oct-18 @ 18:00 to Oct-19 @ 12:00
FM181800 VRB03KT P6SM SCT250
Wind Visibility Clouds
Variable at 3 knots Greater than 6 miles
  • Scattered at 25,000' AGL
KPAE 181137Z 1812/1912 00000KT P6SM SKC FM181800 VRB03KT P6SM SCT250
Issued Oct-18 @ 11:37 UTC
(4 minutes ago)
Valid From Oct-18 @ 12:00 UTC
(in 19 minutes)
Valid To Oct-19 @ 12:00 UTC
(in 24 hours)
Oct-18 @ 12:00 - Oct-18 @ 18:00
Clouds
  • Clear skies
From Oct-18 @ 18:00 - Oct-19 @ 12:00
Wind Visibility
Variable at 3 knots Greater than 6 miles
Clouds
  • Scattered at 25,000' AGL